createdAt,value
2022-08-10T00:01:51.430Z,17.80
2022-08-10T00:04:21.903Z,17.70
2022-08-10T00:06:53.011Z,17.70
2022-08-10T00:09:21.464Z,17.60
2022-08-10T00:11:49.630Z,17.60
2022-08-10T00:14:17.873Z,17.60
2022-08-10T00:16:46.159Z,17.50
2022-08-10T00:19:16.688Z,17.50
2022-08-10T00:21:45.804Z,17.50
2022-08-10T00:24:15.470Z,17.50
2022-08-10T00:27:52.894Z,17.50
2022-08-10T00:29:32.090Z,17.50
2022-08-10T00:32:00.322Z,17.40
2022-08-10T00:34:28.809Z,17.40
2022-08-10T00:36:57.223Z,17.40
2022-08-10T00:39:26.954Z,17.40
2022-08-10T00:42:07.709Z,17.40
2022-08-10T00:44:37.737Z,17.30
2022-08-10T00:47:06.543Z,17.40
2022-08-10T00:49:34.742Z,17.30
2022-08-10T00:52:03.302Z,17.30
2022-08-10T00:54:33.011Z,17.30
2022-08-10T00:57:17.425Z,17.20
2022-08-10T00:59:57.767Z,17.20
2022-08-10T01:02:29.016Z,17.20
2022-08-10T01:05:00.823Z,17.10
2022-08-10T01:07:49.884Z,17.10
2022-08-10T01:10:30.963Z,17.10
2022-08-10T01:13:05.377Z,17.10
2022-08-10T01:15:38.805Z,17.10
2022-08-10T01:18:10.710Z,17.10
2022-08-10T01:20:42.812Z,17.10
2022-08-10T01:23:41.816Z,17.00
2022-08-10T01:26:37.224Z,17.00
2022-08-10T01:29:49.190Z,17.00
2022-08-10T01:32:20.763Z,16.90
2022-08-10T01:34:51.743Z,16.90
2022-08-10T01:37:23.162Z,16.90
2022-08-10T01:39:57.150Z,16.90
2022-08-10T01:42:25.432Z,16.90
2022-08-10T01:44:57.638Z,16.90
2022-08-10T01:47:46.406Z,16.90
2022-08-10T01:50:20.223Z,16.90
2022-08-10T01:52:48.771Z,16.80
2022-08-10T01:55:17.044Z,16.70
2022-08-10T01:57:45.401Z,16.70
2022-08-10T02:00:15.865Z,16.60
2022-08-10T02:02:44.063Z,16.60
2022-08-10T02:05:12.562Z,16.50
2022-08-10T02:07:41.976Z,16.50
2022-08-10T02:10:12.910Z,16.50
2022-08-10T02:12:42.190Z,16.50
2022-08-10T02:15:16.114Z,16.40
2022-08-10T02:18:00.748Z,16.40
2022-08-10T02:20:34.406Z,16.40
2022-08-10T02:23:06.361Z,16.40
2022-08-10T02:25:40.936Z,16.30
2022-08-10T02:28:12.388Z,16.30
2022-08-10T02:30:58.967Z,16.30
2022-08-10T02:33:27.372Z,16.20
2022-08-10T02:35:56.041Z,16.20
2022-08-10T02:38:59.037Z,16.20
2022-08-10T02:42:17.991Z,16.10
2022-08-10T02:45:23.751Z,16.10
2022-08-10T02:47:10.235Z,16.10
2022-08-10T02:49:41.563Z,16.00
2022-08-10T02:52:15.424Z,16.00
2022-08-10T02:54:50.254Z,15.90
2022-08-10T02:57:21.851Z,15.80
2022-08-10T02:59:52.590Z,15.80
2022-08-10T03:02:27.454Z,15.80
2022-08-10T03:05:00.585Z,15.80
2022-08-10T03:07:44.015Z,15.80
2022-08-10T03:10:18.012Z,15.80
2022-08-10T03:12:48.885Z,15.70
2022-08-10T03:15:17.654Z,15.70
2022-08-10T03:17:57.824Z,15.70
2022-08-10T03:20:38.372Z,15.60
2022-08-10T03:23:11.568Z,15.60
2022-08-10T03:25:39.793Z,15.60
2022-08-10T03:28:07.991Z,15.60
2022-08-10T03:30:36.172Z,15.60
2022-08-10T03:33:06.315Z,15.60
2022-08-10T03:35:34.561Z,15.50
2022-08-10T03:38:02.801Z,15.60
2022-08-10T03:40:45.415Z,15.60
2022-08-10T03:43:17.103Z,15.60
2022-08-10T03:45:54.492Z,15.60
2022-08-10T03:48:30.136Z,15.70
2022-08-10T03:51:01.505Z,15.60
2022-08-10T03:54:03.176Z,15.60
2022-08-10T03:56:29.624Z,15.60
2022-08-10T03:59:00.105Z,15.60
2022-08-10T04:02:43.207Z,15.60
2022-08-10T04:04:23.757Z,15.70
2022-08-10T04:06:54.894Z,15.70
2022-08-10T04:09:24.852Z,15.70
2022-08-10T04:12:11.939Z,15.70
2022-08-10T04:14:51.249Z,15.70
2022-08-10T04:18:03.573Z,15.70
2022-08-10T04:20:15.717Z,15.80
2022-08-10T04:22:44.029Z,15.80
2022-08-10T04:25:12.258Z,15.80
2022-08-10T04:27:40.458Z,15.90
2022-08-10T04:30:10.335Z,15.80
2022-08-10T04:32:38.695Z,15.90
2022-08-10T04:35:11.594Z,15.90
2022-08-10T04:37:47.215Z,16.00
2022-08-10T04:40:29.546Z,16.00
2022-08-10T04:43:09.011Z,16.10
2022-08-10T04:45:48.647Z,16.10
2022-08-10T04:48:41.044Z,16.20
2022-08-10T04:51:15.222Z,16.20
2022-08-10T04:54:05.071Z,16.20
2022-08-10T04:56:36.108Z,16.20
2022-08-10T04:59:05.845Z,16.20
2022-08-10T05:02:22.003Z,16.20
2022-08-10T05:04:37.079Z,16.20
2022-08-10T05:07:09.337Z,16.20
2022-08-10T05:10:04.716Z,16.20
2022-08-10T05:12:26.568Z,16.20
2022-08-10T05:14:54.950Z,16.30
2022-08-10T05:17:23.622Z,16.30
2022-08-10T05:20:01.597Z,16.40
2022-08-10T05:22:36.546Z,16.40
2022-08-10T05:25:06.027Z,16.50
2022-08-10T05:27:34.597Z,16.50
2022-08-10T05:30:03.783Z,16.50
2022-08-10T05:32:55.429Z,16.50
2022-08-10T05:35:21.345Z,16.60
2022-08-10T05:38:12.165Z,16.60
2022-08-10T05:40:40.945Z,16.70
2022-08-10T05:43:10.941Z,16.80
2022-08-10T05:46:19.385Z,16.80
2022-08-10T05:48:53.919Z,16.90
2022-08-10T05:51:19.224Z,17.00
2022-08-10T05:54:03.408Z,17.00
2022-08-10T05:56:54.979Z,17.10
2022-08-10T06:00:33.034Z,17.10
2022-08-10T06:02:31.851Z,17.20
2022-08-10T06:05:07.805Z,17.30
2022-08-10T06:07:38.628Z,17.30
2022-08-10T06:10:12.694Z,17.40
2022-08-10T06:12:55.268Z,17.50
2022-08-10T06:15:51.929Z,17.60
2022-08-10T06:18:13.083Z,17.60
2022-08-10T06:20:41.324Z,17.70
2022-08-10T06:23:09.590Z,17.70
2022-08-10T06:26:11.460Z,17.70
2022-08-10T06:28:27.574Z,17.80
2022-08-10T06:30:55.813Z,17.90
2022-08-10T06:33:24.824Z,18.00
2022-08-10T06:35:54.978Z,18.10
2022-08-10T06:38:23.438Z,18.20
2022-08-10T06:40:53.312Z,18.40
2022-08-10T06:43:21.537Z,18.50
2022-08-10T06:46:08.038Z,18.60
2022-08-10T06:48:40.418Z,18.70
2022-08-10T06:51:12.355Z,18.70
2022-08-10T06:53:52.033Z,18.80
2022-08-10T06:56:35.778Z,18.90
2022-08-10T06:59:21.060Z,18.90
2022-08-10T07:01:54.348Z,19.00
2022-08-10T07:04:32.780Z,19.20
2022-08-10T07:07:05.184Z,19.30
2022-08-10T07:09:34.382Z,19.50
2022-08-10T07:12:07.660Z,19.60
2022-08-10T07:14:38.798Z,19.70
2022-08-10T07:17:07.519Z,19.80
2022-08-10T07:19:49.647Z,20.00
2022-08-10T07:23:26.984Z,20.10
2022-08-10T07:25:08.794Z,20.20
2022-08-10T07:27:58.899Z,20.30
2022-08-10T07:30:28.323Z,20.50
2022-08-10T07:32:56.668Z,20.60
2022-08-10T07:35:25.166Z,20.70
2022-08-10T07:37:53.573Z,20.80
2022-08-10T07:40:22.850Z,20.90
2022-08-10T07:42:54.598Z,21.00
2022-08-10T07:45:23.019Z,21.00
2022-08-10T07:48:03.723Z,21.00
2022-08-10T07:50:36.229Z,21.10
2022-08-10T07:53:04.797Z,21.20
2022-08-10T07:56:05.007Z,21.20
2022-08-10T07:58:35.175Z,21.30
2022-08-10T08:01:03.491Z,21.40
2022-08-10T08:03:32.214Z,21.50
2022-08-10T08:06:05.397Z,21.60
2022-08-10T08:08:40.296Z,21.70
2022-08-10T08:11:08.749Z,21.90
2022-08-10T08:13:38.413Z,22.00
2022-08-10T08:16:20.611Z,22.20
2022-08-10T08:19:16.547Z,22.20
2022-08-10T08:24:04.779Z,22.40
2022-08-10T08:24:30.912Z,22.50
2022-08-10T08:27:01.992Z,22.50
2022-08-10T08:29:32.577Z,22.60
2022-08-10T08:32:02.424Z,22.60
2022-08-10T08:34:32.092Z,22.60
2022-08-10T08:37:01.260Z,22.70
2022-08-10T08:39:29.922Z,22.70
2022-08-10T08:42:15.261Z,22.80
2022-08-10T08:45:01.020Z,22.90
2022-08-10T08:48:04.569Z,23.00
2022-08-10T08:50:46.528Z,23.20
2022-08-10T08:54:01.095Z,23.30
2022-08-10T08:56:21.394Z,23.40
2022-08-10T08:59:08.658Z,23.50
2022-08-10T09:02:10.800Z,23.60
2022-08-10T09:05:10.244Z,23.70
2022-08-10T09:08:07.765Z,23.70
2022-08-10T09:10:44.382Z,23.80
2022-08-10T09:13:26.543Z,23.90
2022-08-10T09:16:04.267Z,24.10
2022-08-10T09:18:41.236Z,24.10
2022-08-10T09:21:16.956Z,24.10
2022-08-10T09:24:05.009Z,24.10
2022-08-10T09:26:43.871Z,24.20
2022-08-10T09:29:15.559Z,24.30
2022-08-10T09:32:59.433Z,24.40
2022-08-10T09:36:26.381Z,24.50
2022-08-10T09:38:02.317Z,24.60
2022-08-10T09:40:59.727Z,24.60
2022-08-10T09:43:37.768Z,24.70
2022-08-10T09:46:15.215Z,24.60
2022-08-10T09:48:48.593Z,24.60
2022-08-10T09:51:46.715Z,24.70
2022-08-10T09:54:29.772Z,24.90
2022-08-10T09:57:43.416Z,25.10
2022-08-10T10:00:01.285Z,25.20
2022-08-10T10:02:43.281Z,25.30
2022-08-10T10:05:30.882Z,25.20
2022-08-10T10:08:08.889Z,25.30
2022-08-10T10:10:47.380Z,25.40
2022-08-10T10:13:41.515Z,25.40
2022-08-10T10:16:30.878Z,25.40
2022-08-10T10:19:09.366Z,25.40
2022-08-10T10:21:55.451Z,25.50
2022-08-10T10:24:34.228Z,25.70
2022-08-10T10:27:15.876Z,25.90
2022-08-10T10:29:56.724Z,26.10
2022-08-10T10:32:32.121Z,26.20
2022-08-10T10:35:12.848Z,26.10
2022-08-10T10:38:02.762Z,26.10
2022-08-10T10:40:35.247Z,26.00
2022-08-10T10:43:09.157Z,26.10
2022-08-10T10:45:50.362Z,26.20
2022-08-10T10:48:28.913Z,26.30
2022-08-10T10:51:08.421Z,26.30
2022-08-10T10:53:45.158Z,26.30
2022-08-10T10:56:19.896Z,26.30
2022-08-10T10:58:56.934Z,26.50
2022-08-10T11:01:36.136Z,26.60
2022-08-10T11:04:19.569Z,26.80
2022-08-10T11:07:01.592Z,26.80
2022-08-10T11:10:09.005Z,26.80
2022-08-10T11:12:32.796Z,26.90
2022-08-10T11:15:05.026Z,26.90
2022-08-10T11:17:41.674Z,27.00
2022-08-10T11:20:16.172Z,27.10
2022-08-10T11:22:49.459Z,27.20
2022-08-10T11:25:22.300Z,27.30
2022-08-10T11:27:56.629Z,27.30
2022-08-10T11:30:30.709Z,27.40
2022-08-10T11:33:32.770Z,27.30
2022-08-10T11:36:04.052Z,27.30
2022-08-10T11:38:52.250Z,27.50
2022-08-10T11:42:09.205Z,27.50
2022-08-10T11:44:30.881Z,27.40
2022-08-10T11:47:04.659Z,27.30
2022-08-10T11:49:37.005Z,27.30
2022-08-10T11:52:10.462Z,27.40
2022-08-10T11:54:42.966Z,27.60
2022-08-10T11:57:12.373Z,27.70
2022-08-10T11:59:59.514Z,27.90
2022-08-10T12:02:32.681Z,28.00
2022-08-10T12:05:04.178Z,28.10
2022-08-10T12:10:03.449Z,28.10
2022-08-10T12:10:21.405Z,28.20
2022-08-10T12:12:55.162Z,28.30
2022-08-10T12:15:28.983Z,28.30
2022-08-10T12:18:02.206Z,28.30
2022-08-10T12:20:32.712Z,28.40
2022-08-10T12:23:08.723Z,28.40
2022-08-10T12:25:57.345Z,28.50
2022-08-10T12:28:50.219Z,28.50
2022-08-10T12:31:24.575Z,28.60
2022-08-10T12:34:05.738Z,28.70
2022-08-10T12:36:39.093Z,28.80
2022-08-10T12:39:13.825Z,28.90
2022-08-10T12:41:49.276Z,29.00
2022-08-10T12:44:20.933Z,29.10
2022-08-10T12:46:58.396Z,28.90
2022-08-10T12:49:31.437Z,28.90
2022-08-10T12:52:04.623Z,29.00
2022-08-10T12:54:36.237Z,28.90
2022-08-10T12:57:09.300Z,28.90
2022-08-10T12:59:43.292Z,28.90
2022-08-10T13:02:15.618Z,29.00
2022-08-10T13:04:43.869Z,29.00
2022-08-10T13:08:24.517Z,29.00
2022-08-10T13:10:03.423Z,29.00
2022-08-10T13:12:38.548Z,29.10
2022-08-10T13:15:31.020Z,29.10
2022-08-10T13:18:05.241Z,29.20
2022-08-10T13:20:38.917Z,29.40
2022-08-10T13:23:13.090Z,29.40
2022-08-10T13:25:48.083Z,29.40
2022-08-10T13:28:36.086Z,29.40
2022-08-10T13:31:11.701Z,29.40
2022-08-10T13:34:39.032Z,29.50
2022-08-10T13:36:40.498Z,29.60
2022-08-10T13:39:08.967Z,29.70
2022-08-10T13:41:40.421Z,29.70
2022-08-10T13:44:09.927Z,29.80
2022-08-10T13:46:40.394Z,29.80
2022-08-10T13:49:11.172Z,29.80
2022-08-10T13:51:54.242Z,29.90
2022-08-10T13:54:29.175Z,29.90
2022-08-10T13:56:57.533Z,29.90
2022-08-10T14:00:34.194Z,29.90
2022-08-10T14:02:24.036Z,29.90
2022-08-10T14:04:53.892Z,29.90
2022-08-10T14:07:22.108Z,29.90
2022-08-10T14:09:50.331Z,29.90
2022-08-10T14:12:18.564Z,29.90
2022-08-10T14:14:59.988Z,30.00
2022-08-10T14:17:28.187Z,30.00
2022-08-10T14:19:58.835Z,30.00
2022-08-10T14:22:40.405Z,29.90
2022-08-10T14:25:09.996Z,29.80
2022-08-10T14:28:01.808Z,29.80
2022-08-10T14:30:30.955Z,29.80
2022-08-10T14:33:00.413Z,29.90
2022-08-10T14:36:18.516Z,29.90
2022-08-10T14:38:20.944Z,29.80
2022-08-10T14:40:54.799Z,29.80
2022-08-10T14:43:28.838Z,29.80
2022-08-10T14:46:01.368Z,29.80
2022-08-10T14:48:33.075Z,29.70
2022-08-10T14:51:03.011Z,29.60
2022-08-10T14:53:34.413Z,29.60
2022-08-10T14:56:05.815Z,29.50
2022-08-10T14:58:38.415Z,29.50
2022-08-10T15:01:07.939Z,29.50
2022-08-10T15:04:00.813Z,29.50
2022-08-10T15:06:30.911Z,29.50
2022-08-10T15:09:18.817Z,29.40
2022-08-10T15:12:14.265Z,29.40
2022-08-10T15:14:43.706Z,29.40
2022-08-10T15:17:15.404Z,29.30
2022-08-10T15:20:02.803Z,29.30
2022-08-10T15:22:38.467Z,29.30
2022-08-10T15:25:17.808Z,29.30
2022-08-10T15:27:53.461Z,29.30
2022-08-10T15:30:29.837Z,29.20
2022-08-10T15:33:21.445Z,29.10
2022-08-10T15:36:24.085Z,29.10
2022-08-10T15:39:01.060Z,29.10
2022-08-10T15:41:59.153Z,29.10
2022-08-10T15:44:40.263Z,29.20
2022-08-10T15:47:12.011Z,29.20
2022-08-10T15:49:49.178Z,29.20
2022-08-10T15:53:01.222Z,29.20
2022-08-10T15:55:43.614Z,29.30
2022-08-10T15:58:08.982Z,29.20
2022-08-10T16:00:41.026Z,29.30
2022-08-10T16:03:14.219Z,29.30
2022-08-10T16:06:02.052Z,29.30
2022-08-10T16:08:56.374Z,29.30
2022-08-10T16:11:38.242Z,29.20
2022-08-10T16:14:16.176Z,29.20
2022-08-10T16:16:49.845Z,29.00
2022-08-10T16:19:24.246Z,28.70
2022-08-10T16:22:02.640Z,28.60
2022-08-10T16:24:50.894Z,28.50
2022-08-10T16:27:23.906Z,28.40
2022-08-10T16:29:57.044Z,28.30
2022-08-10T16:32:26.118Z,28.40
2022-08-10T16:34:54.365Z,28.40
2022-08-10T16:37:22.624Z,28.40
2022-08-10T16:39:58.864Z,28.50
2022-08-10T16:42:33.802Z,28.50
2022-08-10T16:45:05.040Z,28.60
2022-08-10T16:47:34.796Z,28.60
2022-08-10T16:50:07.085Z,28.50
2022-08-10T16:52:35.516Z,28.40
2022-08-10T16:55:17.085Z,28.30
2022-08-10T16:57:55.677Z,28.30
2022-08-10T17:00:24.878Z,28.20
2022-08-10T17:02:57.084Z,28.20
2022-08-10T17:06:10.130Z,28.20
2022-08-10T17:08:16.258Z,28.20
2022-08-10T17:10:44.809Z,28.20
2022-08-10T17:13:14.408Z,28.10
2022-08-10T17:15:50.229Z,28.10
2022-08-10T17:18:27.605Z,28.10
2022-08-10T17:20:57.099Z,28.00
2022-08-10T17:23:26.690Z,28.00
2022-08-10T17:25:54.899Z,27.90
2022-08-10T17:28:35.002Z,27.90
2022-08-10T17:31:24.111Z,27.80
2022-08-10T17:34:01.979Z,27.80
2022-08-10T17:36:33.294Z,27.70
2022-08-10T17:39:01.588Z,27.70
2022-08-10T17:41:32.554Z,27.60
2022-08-10T17:44:04.289Z,27.50
2022-08-10T17:46:34.586Z,27.50
2022-08-10T17:49:06.993Z,27.30
2022-08-10T17:51:35.189Z,27.30
2022-08-10T17:54:06.982Z,27.30
2022-08-10T17:56:35.352Z,27.10
2022-08-10T17:59:16.864Z,27.00
2022-08-10T18:02:01.542Z,26.90
2022-08-10T18:04:41.499Z,26.80
2022-08-10T18:07:11.275Z,26.70
2022-08-10T18:09:41.642Z,26.60
2022-08-10T18:12:17.504Z,26.60
2022-08-10T18:14:49.639Z,26.50
2022-08-10T18:17:20.655Z,26.40
2022-08-10T18:19:53.054Z,26.30
2022-08-10T18:22:21.263Z,26.20
2022-08-10T18:24:49.561Z,26.20
2022-08-10T18:27:17.734Z,26.10
2022-08-10T18:29:49.607Z,26.00
2022-08-10T18:32:17.842Z,25.90
2022-08-10T18:34:46.038Z,25.80
2022-08-10T18:37:20.259Z,25.70
2022-08-10T18:39:49.935Z,25.70
2022-08-10T18:42:20.898Z,25.50
2022-08-10T18:44:58.153Z,25.40
2022-08-10T18:47:32.012Z,25.30
2022-08-10T18:50:03.275Z,25.30
2022-08-10T18:52:33.151Z,25.20
2022-08-10T18:55:14.357Z,25.10
2022-08-10T18:57:58.628Z,25.00
2022-08-10T19:00:31.124Z,24.90
2022-08-10T19:03:16.410Z,24.80
2022-08-10T19:06:08.261Z,24.70
2022-08-10T19:09:47.482Z,24.60
2022-08-10T19:12:29.963Z,24.60
2022-08-10T19:15:06.894Z,24.50
2022-08-10T19:18:03.661Z,24.40
2022-08-10T19:20:35.336Z,24.30
2022-08-10T19:23:14.143Z,24.20
2022-08-10T19:26:42.131Z,24.10
2022-08-10T19:28:58.349Z,24.00
2022-08-10T19:31:41.859Z,24.00
2022-08-10T19:34:27.083Z,23.90
2022-08-10T19:37:05.607Z,23.70
2022-08-10T19:39:50.444Z,23.70
2022-08-10T19:42:21.642Z,23.60
2022-08-10T19:45:05.393Z,23.60
2022-08-10T19:47:37.140Z,23.50
2022-08-10T19:50:10.213Z,23.50
2022-08-10T19:52:43.757Z,23.40
2022-08-10T19:55:18.614Z,23.30
2022-08-10T19:57:54.245Z,23.20
2022-08-10T20:00:27.062Z,23.20
2022-08-10T20:03:11.987Z,23.10
2022-08-10T20:06:18.519Z,23.10
2022-08-10T20:08:45.762Z,23.00
2022-08-10T20:11:44.480Z,22.90
2022-08-10T20:14:22.150Z,22.80
2022-08-10T20:16:51.250Z,22.80
2022-08-10T20:19:24.578Z,22.70
2022-08-10T20:22:14.470Z,22.70
2022-08-10T20:24:48.634Z,22.60
2022-08-10T20:27:59.716Z,22.60
2022-08-10T20:30:11.865Z,22.50
2022-08-10T20:32:46.483Z,22.50
2022-08-10T20:35:24.024Z,22.40
2022-08-10T20:38:02.833Z,22.40
2022-08-10T20:40:36.299Z,22.40
2022-08-10T20:43:10.677Z,22.40
2022-08-10T20:46:06.985Z,22.30
2022-08-10T20:48:36.627Z,22.30
2022-08-10T20:51:08.120Z,22.30
2022-08-10T20:53:44.856Z,22.30
2022-08-10T20:56:18.545Z,22.20
2022-08-10T20:59:10.042Z,22.20
2022-08-10T21:02:05.795Z,22.10
2022-08-10T21:04:48.545Z,22.10
2022-08-10T21:08:02.593Z,22.00
2022-08-10T21:10:58.640Z,22.00
2022-08-10T21:13:49.561Z,22.00
2022-08-10T21:16:31.931Z,21.90
2022-08-10T21:19:24.217Z,21.80
2022-08-10T21:22:08.348Z,21.80
2022-08-10T21:24:45.601Z,21.70
2022-08-10T21:27:28.049Z,21.70
2022-08-10T21:30:11.157Z,21.60
2022-08-10T21:32:50.754Z,21.60
2022-08-10T21:35:37.725Z,21.50
2022-08-10T21:38:12.921Z,21.40
2022-08-10T21:41:18.964Z,21.40
2022-08-10T21:44:16.478Z,21.40
2022-08-10T21:47:10.109Z,21.30
2022-08-10T21:53:12.267Z,21.20
2022-08-10T21:56:11.459Z,21.10
2022-08-10T21:59:02.485Z,21.10
2022-08-10T22:01:55.829Z,21.00
2022-08-10T22:04:45.581Z,21.00
2022-08-10T22:07:33.335Z,20.90
2022-08-10T22:10:19.613Z,20.80
2022-08-10T22:13:08.632Z,20.70
2022-08-10T22:16:10.246Z,20.70
2022-08-10T22:19:03.434Z,20.70
2022-08-10T22:25:24.646Z,20.60
2022-08-10T22:28:17.400Z,20.60
2022-08-10T22:31:25.376Z,21.20
2022-08-10T22:31:27.154Z,20.70
2022-08-10T22:31:29.945Z,20.50
2022-08-10T22:34:33.629Z,20.50
2022-08-10T22:37:32.048Z,20.40
2022-08-10T22:40:23.335Z,20.40
2022-08-10T22:43:12.389Z,20.30
2022-08-10T22:46:03.444Z,20.30
2022-08-10T22:48:52.043Z,20.20
2022-08-10T22:51:23.186Z,20.20
2022-08-10T22:54:30.554Z,20.10
2022-08-10T22:57:19.026Z,20.10
2022-08-10T22:59:47.305Z,20.00
2022-08-10T23:02:27.465Z,20.00
2022-08-10T23:04:59.415Z,19.90
2022-08-10T23:07:31.213Z,19.90
2022-08-10T23:10:05.501Z,19.90
2022-08-10T23:12:37.142Z,19.80
2022-08-10T23:15:25.554Z,19.80
2022-08-10T23:18:13.521Z,19.80
2022-08-10T23:20:42.950Z,19.70
2022-08-10T23:23:23.688Z,19.70
2022-08-10T23:25:57.423Z,19.70
2022-08-10T23:28:39.067Z,19.60
2022-08-10T23:31:15.878Z,19.60
2022-08-10T23:33:44.028Z,19.50
2022-08-10T23:36:34.535Z,19.50
2022-08-10T23:39:25.845Z,19.40
2022-08-10T23:42:04.868Z,19.40
2022-08-10T23:44:42.864Z,19.40
2022-08-10T23:47:11.582Z,19.30
2022-08-10T23:49:39.846Z,19.30
2022-08-10T23:52:13.300Z,19.30
2022-08-10T23:54:52.465Z,19.30
2022-08-10T23:57:22.673Z,19.20
2022-08-10T23:59:56.903Z,19.20
